Time,TemperatureF,DewpointF,PressureIn,WindDirection,WindDirectionDegrees,WindSpeedMPH,WindSpeedGustMPH,Humidity,HourlyPrecipIn,Conditions,Clouds,dailyrainin,SoftwareType,DateUTC
2013-06-28 00:03:00,70.9,67.2,29.75,WNW,286,2.0,2.0,88,0.00,,---,0.00,VWS V14.00,2013-06-28 05:03:00,
2013-06-28 00:08:00,70.8,67.1,29.74,WNW,286,0.0,2.0,88,0.00,,---,0.00,VWS V14.00,2013-06-28 05:08:00,
2013-06-28 00:13:00,70.6,67.2,29.74,WNW,286,0.0,2.0,89,0.00,,---,0.00,VWS V14.00,2013-06-28 05:13:00,
2013-06-28 00:18:00,70.4,67.0,29.74,WNW,286,0.0,4.0,89,0.00,,---,0.00,VWS V14.00,2013-06-28 05:18:00,
2013-06-28 00:23:00,70.4,67.0,29.74,WNW,286,0.0,0.0,89,0.00,,---,0.00,VWS V14.00,2013-06-28 05:23:00,
2013-06-28 00:28:00,70.3,67.2,29.74,WNW,286,0.0,0.0,90,0.00,,---,0.00,VWS V14.00,2013-06-28 05:28:00,
2013-06-28 00:34:00,70.1,67.0,29.74,WNW,286,0.0,2.0,90,0.00,,---,0.00,VWS V14.00,2013-06-28 05:34:00,
2013-06-28 00:39:00,69.9,67.2,29.74,WNW,286,0.0,0.0,91,0.00,,---,0.00,VWS V14.00,2013-06-28 05:39:00,
2013-06-28 00:44:00,69.8,67.1,29.74,WNW,286,0.0,0.0,91,0.00,,---,0.00,VWS V14.00,2013-06-28 05:44:00,
2013-06-28 00:49:00,69.6,66.9,29.74,WNW,286,0.0,2.0,91,0.00,,---,0.00,VWS V14.00,2013-06-28 05:49:00,
2013-06-28 00:54:00,69.4,67.0,29.73,WNW,286,0.0,1.0,92,0.00,,---,0.00,VWS V14.00,2013-06-28 05:54:00,
2013-06-28 00:59:00,69.4,67.0,29.73,WNW,286,0.0,3.0,92,0.00,,---,0.00,VWS V14.00,2013-06-28 05:59:00,
2013-06-28 01:04:00,69.4,67.0,29.73,WNW,286,0.0,0.0,92,0.00,,---,0.00,VWS V14.00,2013-06-28 06:04:00,
2013-06-28 01:09:00,69.3,66.9,29.73,WNW,286,0.0,0.0,92,0.00,,---,0.00,VWS V14.00,2013-06-28 06:09:00,
2013-06-28 01:15:00,69.3,66.9,29.73,WNW,286,0.0,0.0,92,0.00,,---,0.00,VWS V14.00,2013-06-28 06:15:00,
2013-06-28 01:20:00,69.1,66.7,29.73,WNW,286,0.0,0.0,92,0.00,,---,0.00,VWS V14.00,2013-06-28 06:20:00,
2013-06-28 01:25:00,69.1,67.0,29.72,WNW,286,0.0,0.0,93,0.00,,---,0.00,VWS V14.00,2013-06-28 06:25:00,
2013-06-28 01:30:00,68.9,66.8,29.72,WNW,286,0.0,0.0,93,0.00,,---,0.00,VWS V14.00,2013-06-28 06:30:00,
2013-06-28 01:35:00,68.9,66.8,29.72,WNW,286,0.0,0.0,93,0.00,,---,0.00,VWS V14.00,2013-06-28 06:35:00,
2013-06-28 01:40:00,68.8,66.7,29.71,WNW,286,1.0,1.0,93,0.00,,---,0.00,VWS V14.00,2013-06-28 06:40:00,
2013-06-28 01:45:00,68.8,66.7,29.71,WNW,286,0.0,3.0,93,0.00,,---,0.00,VWS V14.00,2013-06-28 06:45:00,
2013-06-28 01:50:00,68.8,66.7,29.71,WNW,286,0.0,1.0,93,0.00,,---,0.00,VWS V14.00,2013-06-28 06:50:00,
2013-06-28 01:55:00,68.6,66.5,29.71,WNW,286,0.0,0.0,93,0.00,,---,0.00,VWS V14.00,2013-06-28 06:55:00,
2013-06-28 02:00:00,68.4,66.6,29.71,WNW,286,0.0,2.0,94,0.00,,---,0.00,VWS V14.00,2013-06-28 07:00:00,
2013-06-28 02:06:00,68.4,66.6,29.71,WNW,286,0.0,0.0,94,0.00,,---,0.00,VWS V14.00,2013-06-28 07:06:00,
2013-06-28 02:11:00,68.4,66.6,29.70,WNW,286,0.0,2.0,94,0.00,,---,0.00,VWS V14.00,2013-06-28 07:11:00,
2013-06-28 02:16:00,68.3,66.5,29.70,WNW,286,0.0,1.0,94,0.00,,---,0.00,VWS V14.00,2013-06-28 07:16:00,
2013-06-28 02:21:00,68.3,66.5,29.70,WNW,286,0.0,1.0,94,0.00,,---,0.00,VWS V14.00,2013-06-28 07:21:00,
2013-06-28 02:26:00,68.3,66.5,29.70,WNW,286,1.0,3.0,94,0.00,,---,0.00,VWS V14.00,2013-06-28 07:26:00,
2013-06-28 02:31:00,68.3,66.5,29.70,WNW,286,1.0,4.0,94,0.00,,---,0.00,VWS V14.00,2013-06-28 07:31:00,
2013-06-28 02:36:00,68.3,66.5,29.70,WNW,286,0.0,0.0,94,0.00,,---,0.00,VWS V14.00,2013-06-28 07:36:00,
2013-06-28 02:41:00,68.3,66.5,29.70,WNW,286,0.0,0.0,94,0.00,,---,0.00,VWS V14.00,2013-06-28 07:41:00,
2013-06-28 02:46:00,68.1,66.3,29.70,WNW,286,0.0,1.0,94,0.00,,---,0.00,VWS V14.00,2013-06-28 07:46:00,
2013-06-28 02:51:00,67.9,66.1,29.70,WNW,286,0.0,0.0,94,0.00,,---,0.00,VWS V14.00,2013-06-28 07:51:00,
2013-06-28 02:57:00,67.8,66.0,29.70,WNW,286,0.0,0.0,94,0.00,,---,0.00,VWS V14.00,2013-06-28 07:57:00,
2013-06-28 03:02:00,67.6,65.8,29.70,WNW,286,0.0,0.0,94,0.00,,---,0.00,VWS V14.00,2013-06-28 08:02:00,
2013-06-28 03:07:00,67.6,66.1,29.70,WNW,286,0.0,1.0,95,0.00,,---,0.00,VWS V14.00,2013-06-28 08:07:00,
2013-06-28 03:12:00,67.6,66.1,29.70,WNW,286,0.0,1.0,95,0.00,,---,0.00,VWS V14.00,2013-06-28 08:12:00,
2013-06-28 03:17:00,67.6,66.1,29.70,WNW,286,0.0,0.0,95,0.00,,---,0.00,VWS V14.00,2013-06-28 08:17:00,
2013-06-28 03:22:00,67.4,65.9,29.69,WNW,286,2.0,3.0,95,0.00,,---,0.00,VWS V14.00,2013-06-28 08:22:00,
2013-06-28 03:27:00,67.6,66.1,29.69,WNW,286,0.0,1.0,95,0.00,,---,0.00,VWS V14.00,2013-06-28 08:27:00,
2013-06-28 03:32:00,67.4,65.9,29.69,WNW,286,0.0,2.0,95,0.00,,---,0.00,VWS V14.00,2013-06-28 08:32:00,
2013-06-28 03:37:00,67.4,65.9,29.70,WNW,286,0.0,0.0,95,0.00,,---,0.00,VWS V14.00,2013-06-28 08:37:00,
2013-06-28 03:42:00,67.4,65.9,29.70,WNW,286,1.0,2.0,95,0.00,,---,0.00,VWS V14.00,2013-06-28 08:42:00,
2013-06-28 03:47:00,67.3,65.8,29.70,WNW,286,0.0,1.0,95,0.00,,---,0.00,VWS V14.00,2013-06-28 08:47:00,
2013-06-28 03:52:00,67.3,66.1,29.69,WNW,286,0.0,1.0,96,0.00,,---,0.00,VWS V14.00,2013-06-28 08:52:00,
2013-06-28 03:57:00,67.1,65.9,29.69,WNW,286,0.0,2.0,96,0.00,,---,0.00,VWS V14.00,2013-06-28 08:57:00,
2013-06-28 04:02:00,67.1,65.9,29.69,WNW,286,1.0,3.0,96,0.00,,---,0.00,VWS V14.00,2013-06-28 09:02:00,
2013-06-28 04:07:00,67.1,65.9,29.69,WNW,286,0.0,2.0,96,0.00,,---,0.00,VWS V14.00,2013-06-28 09:07:00,
2013-06-28 04:12:00,67.1,65.9,29.69,WNW,286,0.0,2.0,96,0.00,,---,0.00,VWS V14.00,2013-06-28 09:12:00,
2013-06-28 04:18:00,67.1,65.9,29.69,WNW,286,0.0,1.0,96,0.00,,---,0.00,VWS V14.00,2013-06-28 09:18:00,
2013-06-28 04:22:00,67.1,65.9,29.69,WNW,286,0.0,2.0,96,0.00,,---,0.00,VWS V14.00,2013-06-28 09:22:00,
2013-06-28 04:28:00,67.1,65.9,29.69,WNW,286,1.0,2.0,96,0.00,,---,0.00,VWS V14.00,2013-06-28 09:28:00,
2013-06-28 04:33:00,67.3,65.8,29.69,WNW,286,2.0,4.0,95,0.00,,---,0.00,VWS V14.00,2013-06-28 09:33:00,
2013-06-28 04:38:00,67.4,65.9,29.68,WNW,286,3.0,4.0,95,0.00,,---,0.00,VWS V14.00,2013-06-28 09:38:00,
2013-06-28 04:43:00,67.4,65.9,29.68,WNW,286,1.0,2.0,95,0.00,,---,0.00,VWS V14.00,2013-06-28 09:43:00,
2013-06-28 04:48:00,67.3,65.5,29.68,WNW,286,2.0,4.0,94,0.00,,---,0.00,VWS V14.00,2013-06-28 09:48:00,
2013-06-28 04:53:00,67.3,65.5,29.68,South,186,3.0,3.0,94,0.00,,---,0.00,VWS V14.00,2013-06-28 09:53:00,
2013-06-28 04:58:00,67.1,65.3,29.68,South,187,2.0,2.0,94,0.00,,---,0.00,VWS V14.00,2013-06-28 09:58:00,
2013-06-28 05:03:00,66.9,65.4,29.68,SSW,205,0.0,2.0,95,0.00,,---,0.00,VWS V14.00,2013-06-28 10:03:00,
2013-06-28 05:08:00,66.9,65.4,29.68,SW,219,2.0,4.0,95,0.00,,---,0.00,VWS V14.00,2013-06-28 10:08:00,
2013-06-28 05:14:00,66.9,65.4,29.68,WSW,239,2.0,5.0,95,0.00,,---,0.00,VWS V14.00,2013-06-28 10:14:00,
2013-06-28 05:19:00,66.8,65.3,29.68,WSW,241,1.0,3.0,95,0.00,,---,0.00,VWS V14.00,2013-06-28 10:19:00,
2013-06-28 05:24:00,66.8,65.3,29.69,WSW,241,2.0,4.0,95,0.00,,---,0.00,VWS V14.00,2013-06-28 10:24:00,
2013-06-28 05:29:00,66.6,65.1,29.69,WSW,242,3.0,3.0,95,0.00,,---,0.00,VWS V14.00,2013-06-28 10:29:00,
2013-06-28 05:34:00,66.6,65.1,29.69,WSW,242,2.0,5.0,95,0.00,,---,0.00,VWS V14.00,2013-06-28 10:34:00,
2013-06-28 05:39:00,66.4,64.9,29.69,WSW,242,3.0,4.0,95,0.00,,---,0.00,VWS V14.00,2013-06-28 10:39:00,
2013-06-28 05:44:00,66.4,64.9,29.69,WSW,242,1.0,4.0,95,0.00,,---,0.00,VWS V14.00,2013-06-28 10:44:00,
2013-06-28 05:49:00,66.4,64.9,29.69,WSW,243,1.0,1.0,95,0.00,,---,0.00,VWS V14.00,2013-06-28 10:49:00,
2013-06-28 05:54:00,66.3,64.8,29.70,WSW,243,0.0,2.0,95,0.00,,---,0.00,VWS V14.00,2013-06-28 10:54:00,
2013-06-28 05:59:00,66.3,64.8,29.70,WSW,243,0.0,2.0,95,0.00,,---,0.00,VWS V14.00,2013-06-28 10:59:00,
2013-06-28 06:05:00,66.3,64.8,29.70,WSW,243,1.0,4.0,95,0.00,,---,0.00,VWS V14.00,2013-06-28 11:05:00,
2013-06-28 06:10:00,66.3,64.8,29.70,WSW,243,1.0,4.0,95,0.00,,---,0.00,VWS V14.00,2013-06-28 11:10:00,
2013-06-28 06:15:00,66.4,64.9,29.70,WSW,243,0.0,0.0,95,0.00,,---,0.00,VWS V14.00,2013-06-28 11:15:00,
2013-06-28 06:20:00,66.4,64.9,29.70,WSW,243,0.0,0.0,95,0.00,,---,0.00,VWS V14.00,2013-06-28 11:20:00,
2013-06-28 06:25:00,66.6,65.1,29.70,WSW,243,0.0,3.0,95,0.00,,---,0.00,VWS V14.00,2013-06-28 11:25:00,
2013-06-28 06:30:00,66.6,65.4,29.70,WSW,243,0.0,4.0,96,0.00,,---,0.00,VWS V14.00,2013-06-28 11:30:00,
2013-06-28 06:35:00,66.6,65.4,29.70,WSW,243,2.0,4.0,96,0.00,,---,0.00,VWS V14.00,2013-06-28 11:35:00,
2013-06-28 06:40:00,66.6,65.4,29.70,WSW,243,0.0,1.0,96,0.00,,---,0.00,VWS V14.00,2013-06-28 11:40:00,
2013-06-28 06:46:00,66.6,65.4,29.70,WSW,243,0.0,0.0,96,0.00,,---,0.00,VWS V14.00,2013-06-28 11:46:00,
2013-06-28 06:51:00,66.8,65.6,29.70,WSW,243,0.0,0.0,96,0.00,,---,0.00,VWS V14.00,2013-06-28 11:51:00,
2013-06-28 06:56:00,66.9,66.0,29.70,WSW,243,0.0,4.0,97,0.00,,---,0.00,VWS V14.00,2013-06-28 11:56:00,
2013-06-28 07:01:00,67.3,66.1,29.70,WSW,243,5.0,7.0,96,0.00,,---,0.00,VWS V14.00,2013-06-28 12:01:00,
2013-06-28 07:06:00,67.4,66.2,29.70,WSW,242,0.0,0.0,96,0.00,,---,0.00,VWS V14.00,2013-06-28 12:06:00,
2013-06-28 07:11:00,67.8,66.6,29.70,WSW,243,0.0,1.0,96,0.00,,---,0.00,VWS V14.00,2013-06-28 12:11:00,
2013-06-28 07:16:00,67.9,66.7,29.70,WSW,243,0.0,3.0,96,0.00,,---,0.00,VWS V14.00,2013-06-28 12:16:00,
2013-06-28 07:21:00,68.3,66.8,29.70,WSW,243,2.0,3.0,95,0.00,,---,0.00,VWS V14.00,2013-06-28 12:21:00,
2013-06-28 07:26:00,68.4,66.9,29.70,WSW,243,0.0,2.0,95,0.00,,---,0.00,VWS V14.00,2013-06-28 12:26:00,
2013-06-28 07:27:00,68.4,66.9,29.70,WSW,243,1.0,3.0,95,0.00,,---,0.00,VWS V14.00,2013-06-28 12:27:00,
2013-06-28 07:32:00,68.9,67.1,29.70,WSW,243,1.0,7.0,94,0.00,,---,0.00,VWS V14.00,2013-06-28 12:32:00,
2013-06-28 07:37:00,69.1,67.0,29.70,WSW,244,1.0,3.0,93,0.00,,---,0.00,VWS V14.00,2013-06-28 12:37:00,
2013-06-28 07:42:00,69.4,67.3,29.70,WSW,244,0.0,2.0,93,0.00,,---,0.00,VWS V14.00,2013-06-28 12:42:00,
2013-06-28 07:47:00,69.8,67.4,29.70,WSW,244,2.0,4.0,92,0.00,,---,0.00,VWS V14.00,2013-06-28 12:47:00,
2013-06-28 07:52:00,69.9,67.2,29.70,West,259,5.0,6.0,91,0.00,,---,0.00,VWS V14.00,2013-06-28 12:52:00,
2013-06-28 07:57:00,70.3,67.2,29.70,West,273,4.0,5.0,90,0.00,,---,0.00,VWS V14.00,2013-06-28 12:57:00,
2013-06-28 08:02:00,70.6,66.9,29.70,West,280,5.0,7.0,88,0.00,,---,0.00,VWS V14.00,2013-06-28 13:02:00,
2013-06-28 08:07:00,70.8,66.4,29.70,WNW,292,2.0,9.0,86,0.00,,---,0.00,VWS V14.00,2013-06-28 13:07:00,
2013-06-28 08:12:00,71.1,65.7,29.70,WNW,292,4.0,6.0,83,0.00,,---,0.00,VWS V14.00,2013-06-28 13:12:00,
2013-06-28 08:17:00,71.6,66.5,29.70,WNW,292,3.0,7.0,84,0.00,,---,0.00,VWS V14.00,2013-06-28 13:17:00,
2013-06-28 08:22:00,72.1,66.7,29.70,WNW,290,0.0,6.0,83,0.00,,---,0.00,VWS V14.00,2013-06-28 13:22:00,
2013-06-28 08:27:00,72.5,67.1,29.70,WNW,289,3.0,3.0,83,0.00,,---,0.00,VWS V14.00,2013-06-28 13:27:00,
2013-06-28 08:32:00,72.8,66.3,29.70,WNW,288,2.0,6.0,80,0.00,,---,0.00,VWS V14.00,2013-06-28 13:32:00,
2013-06-28 08:37:00,72.8,65.6,29.70,WNW,292,7.0,10.0,78,0.00,,---,0.00,VWS V14.00,2013-06-28 13:37:00,
2013-06-28 08:42:00,73.3,66.4,29.70,WNW,292,1.0,3.0,79,0.00,,---,0.00,VWS V14.00,2013-06-28 13:42:00,
2013-06-28 08:47:00,73.9,66.6,29.70,WNW,292,3.0,5.0,78,0.00,,---,0.00,VWS V14.00,2013-06-28 13:47:00,
2013-06-28 08:52:00,74.2,66.5,29.69,WNW,292,3.0,5.0,77,0.00,,---,0.00,VWS V14.00,2013-06-28 13:52:00,
2013-06-28 08:58:00,74.7,66.6,29.69,WNW,292,2.0,4.0,76,0.00,,---,0.00,VWS V14.00,2013-06-28 13:58:00,
2013-06-28 09:03:00,75.3,67.6,29.69,WNW,288,2.0,6.0,77,0.00,,---,0.00,VWS V14.00,2013-06-28 14:03:00,
2013-06-28 09:08:00,75.4,65.8,29.69,WNW,288,3.0,3.0,72,0.00,,---,0.00,VWS V14.00,2013-06-28 14:08:00,
2013-06-28 09:13:00,75.6,65.5,29.69,WNW,290,0.0,5.0,71,0.00,,---,0.00,VWS V14.00,2013-06-28 14:13:00,
2013-06-28 09:18:00,76.0,66.3,29.69,WNW,284,3.0,6.0,72,0.00,,---,0.00,VWS V14.00,2013-06-28 14:18:00,
2013-06-28 09:23:00,76.1,66.4,29.69,WNW,290,5.0,11.0,72,0.00,,---,0.00,VWS V14.00,2013-06-28 14:23:00,
2013-06-28 09:28:00,76.3,65.4,29.69,WNW,293,5.0,5.0,69,0.00,,---,0.00,VWS V14.00,2013-06-28 14:28:00,
2013-06-28 09:33:00,76.7,65.8,29.69,WNW,290,2.0,6.0,69,0.00,,---,0.00,VWS V14.00,2013-06-28 14:33:00,
2013-06-28 09:38:00,77.0,64.3,29.68,WNW,294,3.0,10.0,65,0.00,,---,0.00,VWS V14.00,2013-06-28 14:38:00,
2013-06-28 09:43:00,76.8,65.0,29.68,WNW,296,11.0,11.0,67,0.00,,---,0.00,VWS V14.00,2013-06-28 14:43:00,
2013-06-28 09:49:00,77.0,65.2,29.68,WNW,292,6.0,10.0,67,0.00,,---,0.00,VWS V14.00,2013-06-28 14:49:00,
2013-06-28 09:54:00,77.2,65.0,29.68,WNW,294,4.0,11.0,66,0.00,,---,0.00,VWS V14.00,2013-06-28 14:54:00,
2013-06-28 09:59:00,77.4,65.6,29.68,WNW,296,9.0,9.0,67,0.00,,---,0.00,VWS V14.00,2013-06-28 14:59:00,
2013-06-28 10:04:00,77.4,65.6,29.68,WNW,293,3.0,12.0,67,0.00,,---,0.00,VWS V14.00,2013-06-28 15:04:00,
2013-06-28 10:09:00,77.6,66.2,29.67,WNW,294,2.0,7.0,68,0.00,,---,0.00,VWS V14.00,2013-06-28 15:09:00,
2013-06-28 10:14:00,77.9,66.1,29.67,WNW,285,6.0,7.0,67,0.00,,---,0.00,VWS V14.00,2013-06-28 15:14:00,
2013-06-28 10:19:00,78.1,66.7,29.67,WNW,288,7.0,7.0,68,0.00,,---,0.00,VWS V14.00,2013-06-28 15:19:00,
2013-06-28 10:24:00,78.1,66.3,29.67,WNW,296,4.0,7.0,67,0.00,,---,0.00,VWS V14.00,2013-06-28 15:24:00,
2013-06-28 10:29:00,78.5,65.8,29.67,WNW,299,3.0,7.0,65,0.00,,---,0.00,VWS V14.00,2013-06-28 15:29:00,
2013-06-28 10:34:00,78.5,64.0,29.67,WNW,294,4.0,12.0,61,0.00,,---,0.00,VWS V14.00,2013-06-28 15:34:00,
2013-06-28 10:40:00,78.6,64.5,29.67,WNW,291,7.0,11.0,62,0.00,,---,0.00,VWS V14.00,2013-06-28 15:40:00,
2013-06-28 10:45:00,78.6,63.6,29.67,WNW,295,7.0,11.0,60,0.00,,---,0.00,VWS V14.00,2013-06-28 15:45:00,
2013-06-28 10:50:00,79.0,65.8,29.67,WNW,284,9.0,9.0,64,0.00,,---,0.00,VWS V14.00,2013-06-28 15:50:00,
2013-06-28 10:55:00,79.4,64.8,29.67,WNW,300,12.0,12.0,61,0.00,,---,0.00,VWS V14.00,2013-06-28 15:55:00,
2013-06-28 11:00:00,79.6,65.9,29.67,West,277,10.0,10.0,63,0.00,,---,0.00,VWS V14.00,2013-06-28 16:00:00,
2013-06-28 11:05:00,79.9,64.8,29.67,WNW,288,3.0,6.0,60,0.00,,---,0.00,VWS V14.00,2013-06-28 16:05:00,
2013-06-28 11:10:00,79.9,62.8,29.66,WNW,296,5.0,12.0,56,0.00,,---,0.00,VWS V14.00,2013-06-28 16:10:00,
2013-06-28 11:15:00,80.3,64.2,29.66,WNW,301,9.0,9.0,58,0.00,,---,0.00,VWS V14.00,2013-06-28 16:15:00,
2013-06-28 11:20:00,80.3,60.5,29.66,WNW,293,6.0,15.0,51,0.00,,---,0.00,VWS V14.00,2013-06-28 16:20:00,
2013-06-28 11:25:00,80.5,62.9,29.67,WNW,290,2.0,9.0,55,0.00,,---,0.00,VWS V14.00,2013-06-28 16:25:00,
2013-06-28 11:30:00,80.9,63.8,29.67,WNW,290,5.0,6.0,56,0.00,,---,0.00,VWS V14.00,2013-06-28 16:30:00,
2013-06-28 11:35:00,80.9,61.6,29.67,WNW,300,8.0,13.0,52,0.00,,---,0.00,VWS V14.00,2013-06-28 16:35:00,
2013-06-28 11:40:00,80.9,61.1,29.66,NW,304,5.0,11.0,51,0.00,,---,0.00,VWS V14.00,2013-06-28 16:40:00,
2013-06-28 11:45:00,81.1,61.3,29.66,NW,311,5.0,6.0,51,0.00,,---,0.00,VWS V14.00,2013-06-28 16:45:00,
2013-06-28 11:51:00,81.2,63.0,29.66,WNW,296,9.0,14.0,54,0.00,,---,0.00,VWS V14.00,2013-06-28 16:51:00,
2013-06-28 11:56:00,81.2,61.4,29.66,WNW,300,7.0,10.0,51,0.00,,---,0.00,VWS V14.00,2013-06-28 16:56:00,
2013-06-28 12:01:00,81.2,60.8,29.66,WNW,292,13.0,15.0,50,0.00,,---,0.00,VWS V14.00,2013-06-28 17:01:00,
2013-06-28 12:06:00,81.4,61.5,29.66,NW,311,5.0,9.0,51,0.00,,---,0.00,VWS V14.00,2013-06-28 17:06:00,
2013-06-28 12:11:00,81.8,63.0,29.66,WNW,294,2.0,5.0,53,0.00,,---,0.00,VWS V14.00,2013-06-28 17:11:00,
2013-06-28 12:16:00,82.0,61.0,29.66,WNW,294,2.0,3.0,49,0.00,,---,0.00,VWS V14.00,2013-06-28 17:16:00,
2013-06-28 12:21:00,81.1,60.2,29.66,WNW,292,4.0,11.0,49,0.00,,---,0.00,VWS V14.00,2013-06-28 17:21:00,
2013-06-28 12:26:00,80.5,60.7,29.66,WNW,293,2.0,9.0,51,0.00,,---,0.00,VWS V14.00,2013-06-28 17:26:00,
2013-06-28 12:31:00,80.1,60.9,29.66,WNW,300,2.0,3.0,52,0.00,,---,0.00,VWS V14.00,2013-06-28 17:31:00,
2013-06-28 12:37:00,79.9,60.2,29.66,WNW,298,6.0,6.0,51,0.00,,---,0.00,VWS V14.00,2013-06-28 17:37:00,
2013-06-28 12:42:00,80.3,60.0,29.66,WNW,297,4.0,9.0,50,0.00,,---,0.00,VWS V14.00,2013-06-28 17:42:00,
2013-06-28 12:47:00,80.9,61.1,29.66,WNW,298,7.0,7.0,51,0.00,,---,0.00,VWS V14.00,2013-06-28 17:47:00,
2013-06-28 12:52:00,81.1,59.6,29.65,WNW,296,9.0,14.0,48,0.00,,---,0.00,VWS V14.00,2013-06-28 17:52:00,
2013-06-28 12:57:00,81.4,59.8,29.65,NW,312,6.0,8.0,48,0.00,,---,0.00,VWS V14.00,2013-06-28 17:57:00,
2013-06-28 13:02:00,81.4,58.0,29.65,WNW,298,5.0,14.0,45,0.00,,---,0.00,VWS V14.00,2013-06-28 18:02:00,
2013-06-28 13:07:00,81.6,60.6,29.65,WNW,298,10.0,13.0,49,0.00,,---,0.00,VWS V14.00,2013-06-28 18:07:00,
2013-06-28 13:12:00,81.8,59.6,29.65,WNW,295,10.0,13.0,47,0.00,,---,0.00,VWS V14.00,2013-06-28 18:12:00,
2013-06-28 13:17:00,81.6,59.4,29.65,WNW,296,3.0,12.0,47,0.00,,---,0.00,VWS V14.00,2013-06-28 18:17:00,
2013-06-28 13:22:00,80.9,60.0,29.65,WNW,296,3.0,5.0,49,0.00,,---,0.00,VWS V14.00,2013-06-28 18:22:00,
2013-06-28 13:27:00,80.1,60.9,29.65,WNW,291,6.0,6.0,52,0.00,,---,0.00,VWS V14.00,2013-06-28 18:27:00,
2013-06-28 13:32:00,80.3,60.5,29.65,WNW,288,6.0,6.0,51,0.00,,---,0.00,VWS V14.00,2013-06-28 18:32:00,
2013-06-28 13:37:00,80.7,59.8,29.65,WNW,296,5.0,16.0,49,0.00,,---,0.00,VWS V14.00,2013-06-28 18:37:00,
2013-06-28 13:42:00,81.1,61.3,29.65,WNW,293,3.0,9.0,51,0.00,,---,0.00,VWS V14.00,2013-06-28 18:42:00,
2013-06-28 13:47:00,81.4,59.3,29.65,WNW,297,6.0,14.0,47,0.00,,---,0.00,VWS V14.00,2013-06-28 18:47:00,
2013-06-28 13:52:00,81.4,58.7,29.65,West,281,13.0,14.0,46,0.00,,---,0.00,VWS V14.00,2013-06-28 18:52:00,
2013-06-28 13:58:00,80.9,59.4,29.65,WNW,294,11.0,13.0,48,0.00,,---,0.00,VWS V14.00,2013-06-28 18:58:00,
2013-06-28 14:03:00,80.5,60.2,29.65,WNW,288,6.0,14.0,50,0.00,,---,0.00,VWS V14.00,2013-06-28 19:03:00,
2013-06-28 14:08:00,80.7,58.6,29.65,WNW,298,2.0,12.0,47,0.00,,---,0.00,VWS V14.00,2013-06-28 19:08:00,
2013-06-28 14:13:00,80.9,60.5,29.65,WNW,296,3.0,4.0,50,0.00,,---,0.00,VWS V14.00,2013-06-28 19:13:00,
2013-06-28 14:18:00,81.2,59.7,29.65,WNW,294,6.0,12.0,48,0.00,,---,0.00,VWS V14.00,2013-06-28 19:18:00,
2013-06-28 14:23:00,81.4,58.7,29.64,WNW,295,6.0,12.0,46,0.00,,---,0.00,VWS V14.00,2013-06-28 19:23:00,
2013-06-28 14:28:00,81.2,57.9,29.64,WNW,292,15.0,16.0,45,0.00,,---,0.00,VWS V14.00,2013-06-28 19:28:00,
2013-06-28 14:33:00,81.2,57.2,29.64,WNW,293,10.0,19.0,44,0.00,,---,0.00,VWS V14.00,2013-06-28 19:33:00,
2013-06-28 14:38:00,81.4,57.4,29.64,WNW,300,9.0,12.0,44,0.00,,---,0.00,VWS V14.00,2013-06-28 19:38:00,
2013-06-28 14:43:00,81.2,59.7,29.64,WNW,295,11.0,14.0,48,0.00,,---,0.00,VWS V14.00,2013-06-28 19:43:00,
2013-06-28 14:48:00,81.4,58.0,29.64,WNW,286,13.0,15.0,45,0.00,,---,0.00,VWS V14.00,2013-06-28 19:48:00,
2013-06-28 14:53:00,81.4,58.0,29.64,WNW,288,13.0,14.0,45,0.00,,---,0.00,VWS V14.00,2013-06-28 19:53:00,
2013-06-28 14:58:00,81.6,60.0,29.64,WNW,284,14.0,14.0,48,0.00,,---,0.00,VWS V14.00,2013-06-28 19:58:00,
2013-06-28 15:04:00,81.6,58.8,29.64,WNW,293,7.0,12.0,46,0.00,,---,0.00,VWS V14.00,2013-06-28 20:04:00,
2013-06-28 15:09:00,81.8,59.0,29.63,WNW,294,15.0,15.0,46,0.00,,---,0.00,VWS V14.00,2013-06-28 20:09:00,
2013-06-28 15:14:00,81.8,59.6,29.63,WNW,294,11.0,14.0,47,0.00,,---,0.00,VWS V14.00,2013-06-28 20:14:00,
2013-06-28 15:19:00,80.9,58.8,29.63,WNW,294,4.0,5.0,47,0.00,,---,0.00,VWS V14.00,2013-06-28 20:19:00,
2013-06-28 15:24:00,81.1,58.4,29.62,WNW,292,4.0,10.0,46,0.00,,---,0.00,VWS V14.00,2013-06-28 20:24:00,
2013-06-28 15:29:00,81.6,58.2,29.62,WNW,292,7.0,11.0,45,0.00,,---,0.00,VWS V14.00,2013-06-28 20:29:00,
2013-06-28 15:34:00,80.9,57.6,29.62,WNW,290,5.0,9.0,45,0.00,,---,0.00,VWS V14.00,2013-06-28 20:34:00,
2013-06-28 15:39:00,80.7,58.0,29.62,WNW,291,9.0,12.0,46,0.00,,---,0.00,VWS V14.00,2013-06-28 20:39:00,
2013-06-28 15:44:00,81.1,58.4,29.62,WNW,294,5.0,7.0,46,0.00,,---,0.00,VWS V14.00,2013-06-28 20:44:00,
2013-06-28 15:49:00,81.2,59.1,29.62,WNW,287,4.0,12.0,47,0.00,,---,0.00,VWS V14.00,2013-06-28 20:49:00,
2013-06-28 15:54:00,81.4,59.3,29.62,WNW,290,12.0,16.0,47,0.00,,---,0.00,VWS V14.00,2013-06-28 20:54:00,
2013-06-28 15:59:00,81.6,58.2,29.62,WNW,296,7.0,15.0,45,0.00,,---,0.00,VWS V14.00,2013-06-28 20:59:00,
2013-06-28 16:04:00,81.6,58.8,29.62,WNW,296,10.0,11.0,46,0.00,,---,0.00,VWS V14.00,2013-06-28 21:04:00,
2013-06-28 16:09:00,81.8,59.0,29.61,WNW,290,6.0,11.0,46,0.00,,---,0.00,VWS V14.00,2013-06-28 21:09:00,
2013-06-28 16:14:00,81.8,57.1,29.61,WNW,296,10.0,17.0,43,0.00,,---,0.00,VWS V14.00,2013-06-28 21:14:00,
2013-06-28 16:19:00,81.8,57.1,29.61,WNW,292,10.0,13.0,43,0.00,,---,0.00,VWS V14.00,2013-06-28 21:19:00,
2013-06-28 16:24:00,81.6,57.6,29.61,West,276,6.0,14.0,44,0.00,,---,0.00,VWS V14.00,2013-06-28 21:24:00,
2013-06-28 16:29:00,80.9,57.6,29.61,WNW,298,16.0,16.0,45,0.00,,---,0.00,VWS V14.00,2013-06-28 21:29:00,
2013-06-28 16:35:00,80.1,56.2,29.61,WNW,291,5.0,15.0,44,0.00,,---,0.00,VWS V14.00,2013-06-28 21:35:00,
2013-06-28 16:40:00,79.6,57.6,29.61,WNW,294,10.0,11.0,47,0.00,,---,0.00,VWS V14.00,2013-06-28 21:40:00,
2013-06-28 16:45:00,79.2,57.8,29.61,WNW,295,13.0,16.0,48,0.00,,---,0.00,VWS V14.00,2013-06-28 21:45:00,
2013-06-28 16:50:00,79.8,58.4,29.61,WNW,294,7.0,11.0,48,0.00,,---,0.00,VWS V14.00,2013-06-28 21:50:00,
2013-06-28 16:55:00,80.3,58.8,29.61,WNW,290,12.0,12.0,48,0.00,,---,0.00,VWS V14.00,2013-06-28 21:55:00,
2013-06-28 17:00:00,80.7,58.6,29.61,WNW,295,11.0,14.0,47,0.00,,---,0.00,VWS V14.00,2013-06-28 22:00:00,
2013-06-28 17:05:00,80.9,59.4,29.61,West,276,5.0,19.0,48,0.00,,---,0.00,VWS V14.00,2013-06-28 22:05:00,
2013-06-28 17:10:00,81.1,60.2,29.60,WNW,292,6.0,9.0,49,0.00,,---,0.00,VWS V14.00,2013-06-28 22:10:00,
2013-06-28 17:15:00,81.2,60.2,29.60,WNW,290,9.0,13.0,49,0.00,,---,0.00,VWS V14.00,2013-06-28 22:15:00,
2013-06-28 17:21:00,81.2,58.5,29.60,WNW,292,13.0,18.0,46,0.00,,---,0.00,VWS V14.00,2013-06-28 22:21:00,
2013-06-28 17:26:00,81.2,57.9,29.60,West,277,12.0,20.0,45,0.00,,---,0.00,VWS V14.00,2013-06-28 22:26:00,
2013-06-28 17:31:00,81.2,57.2,29.60,WNW,290,11.0,18.0,44,0.00,,---,0.00,VWS V14.00,2013-06-28 22:31:00,
2013-06-28 17:36:00,81.1,58.4,29.60,WNW,296,7.0,14.0,46,0.00,,---,0.00,VWS V14.00,2013-06-28 22:36:00,
2013-06-28 17:41:00,80.1,57.5,29.60,WNW,298,7.0,12.0,46,0.00,,---,0.00,VWS V14.00,2013-06-28 22:41:00,
2013-06-28 17:46:00,79.6,57.0,29.60,WNW,297,6.0,19.0,46,0.00,,---,0.00,VWS V14.00,2013-06-28 22:46:00,
2013-06-28 17:51:00,79.2,56.7,29.60,WNW,286,7.0,7.0,46,0.00,,---,0.00,VWS V14.00,2013-06-28 22:51:00,
2013-06-28 17:56:00,79.0,57.1,29.60,WNW,296,5.0,12.0,47,0.00,,---,0.00,VWS V14.00,2013-06-28 22:56:00,
2013-06-28 18:01:00,78.8,56.9,29.60,WNW,301,11.0,15.0,47,0.00,,---,0.00,VWS V14.00,2013-06-28 23:01:00,
2013-06-28 18:06:00,78.8,57.5,29.60,WNW,288,4.0,9.0,48,0.00,,---,0.00,VWS V14.00,2013-06-28 23:06:00,
2013-06-28 18:12:00,78.6,57.3,29.60,WNW,298,3.0,11.0,48,0.00,,---,0.00,VWS V14.00,2013-06-28 23:12:00,
2013-06-28 18:17:00,78.5,57.8,29.60,WNW,292,4.0,12.0,49,0.00,,---,0.00,VWS V14.00,2013-06-28 23:17:00,
2013-06-28 18:22:00,78.3,58.2,29.60,WNW,291,9.0,9.0,50,0.00,,---,0.00,VWS V14.00,2013-06-28 23:22:00,
2013-06-28 18:27:00,77.9,58.9,29.60,NNW,329,5.0,11.0,52,0.00,,---,0.00,VWS V14.00,2013-06-28 23:27:00,
2013-06-28 18:32:00,76.1,61.2,29.60,NNW,329,2.0,5.0,60,0.00,,---,0.00,VWS V14.00,2013-06-28 23:32:00,
2013-06-28 18:37:00,74.4,62.3,29.62,NNW,329,2.0,2.0,66,0.00,,---,0.00,VWS V14.00,2013-06-28 23:37:00,
2013-06-28 18:42:00,72.7,62.8,29.62,NNW,329,1.0,1.0,71,0.00,,---,0.00,VWS V14.00,2013-06-28 23:42:00,
2013-06-28 18:47:00,71.5,62.4,29.62,NNW,329,0.0,0.0,73,0.00,,---,0.00,VWS V14.00,2013-06-28 23:47:00,
2013-06-28 18:52:00,70.6,63.0,29.61,NNW,329,0.0,0.0,77,0.00,,---,0.00,VWS V14.00,2013-06-28 23:52:00,
2013-06-28 18:57:00,70.3,63.5,29.61,NNW,329,0.0,0.0,79,0.00,,---,0.00,VWS V14.00,2013-06-28 23:57:00,
2013-06-28 19:02:00,69.9,63.5,29.61,NNW,329,0.0,0.0,80,0.00,,---,0.00,VWS V14.00,2013-06-29 00:02:00,
2013-06-28 19:07:00,69.9,63.8,29.61,NNW,329,0.0,0.0,81,0.00,,---,0.00,VWS V14.00,2013-06-29 00:07:00,
2013-06-28 19:12:00,69.9,63.8,29.61,NNW,329,3.0,3.0,81,0.00,,---,0.00,VWS V14.00,2013-06-29 00:12:00,
2013-06-28 19:17:00,70.1,63.7,29.61,NNW,329,2.0,6.0,80,0.00,,---,0.00,VWS V14.00,2013-06-29 00:17:00,
2013-06-28 19:22:00,70.4,63.2,29.61,NNW,329,1.0,2.0,78,0.00,,---,0.00,VWS V14.00,2013-06-29 00:22:00,
2013-06-28 19:27:00,70.8,63.6,29.61,NNW,329,1.0,3.0,78,0.00,,---,0.00,VWS V14.00,2013-06-29 00:27:00,
2013-06-28 19:32:00,71.1,63.5,29.61,NNW,329,0.0,2.0,77,0.00,,---,0.00,VWS V14.00,2013-06-29 00:32:00,
2013-06-28 19:37:00,71.5,63.5,29.61,NNW,328,0.0,2.0,76,0.00,,---,0.00,VWS V14.00,2013-06-29 00:37:00,
2013-06-28 19:42:00,71.8,63.5,29.61,NNW,328,1.0,5.0,75,0.00,,---,0.00,VWS V14.00,2013-06-29 00:42:00,
2013-06-28 19:47:00,72.0,63.7,29.61,NNW,328,5.0,5.0,75,0.00,,---,0.00,VWS V14.00,2013-06-29 00:47:00,
2013-06-28 19:52:00,72.0,63.7,29.61,NNW,328,3.0,6.0,75,0.00,,---,0.00,VWS V14.00,2013-06-29 00:52:00,
2013-06-28 19:57:00,72.0,63.3,29.61,NNW,328,1.0,5.0,74,0.00,,---,0.00,VWS V14.00,2013-06-29 00:57:00,
2013-06-28 20:02:00,72.1,63.4,29.61,NNW,327,1.0,4.0,74,0.00,,---,0.00,VWS V14.00,2013-06-29 01:02:00,
2013-06-28 20:07:00,72.1,63.4,29.61,NNW,327,0.0,1.0,74,0.00,,---,0.00,VWS V14.00,2013-06-29 01:07:00,
2013-06-28 20:12:00,72.0,63.3,29.61,NNW,327,0.0,0.0,74,0.00,,---,0.00,VWS V14.00,2013-06-29 01:12:00,
2013-06-28 20:18:00,72.0,63.3,29.61,NNW,327,0.0,2.0,74,0.00,,---,0.00,VWS V14.00,2013-06-29 01:18:00,
2013-06-28 20:23:00,71.8,63.1,29.61,NNW,327,1.0,2.0,74,0.00,,---,0.00,VWS V14.00,2013-06-29 01:23:00,
2013-06-28 20:28:00,71.6,62.9,29.61,NNW,327,4.0,5.0,74,0.00,,---,0.00,VWS V14.00,2013-06-29 01:28:00,
2013-06-28 20:33:00,71.5,63.2,29.61,NNW,327,0.0,4.0,75,0.00,,---,0.00,VWS V14.00,2013-06-29 01:33:00,
2013-06-28 20:38:00,71.3,63.0,29.61,NNW,327,0.0,1.0,75,0.00,,---,0.00,VWS V14.00,2013-06-29 01:38:00,
2013-06-28 20:43:00,71.1,62.4,29.61,NNW,327,1.0,6.0,74,0.00,,---,0.00,VWS V14.00,2013-06-29 01:43:00,
2013-06-28 20:48:00,71.1,62.4,29.61,NNW,327,0.0,2.0,74,0.00,,---,0.00,VWS V14.00,2013-06-29 01:48:00,
2013-06-28 20:53:00,71.1,62.0,29.61,NNW,327,3.0,4.0,73,0.00,,---,0.00,VWS V14.00,2013-06-29 01:53:00,
2013-06-28 20:59:00,71.1,62.0,29.61,NNW,327,3.0,5.0,73,0.00,,---,0.00,VWS V14.00,2013-06-29 01:59:00,
2013-06-28 21:04:00,71.1,61.6,29.61,NNW,327,0.0,2.0,72,0.00,,---,0.00,VWS V14.00,2013-06-29 02:04:00,
2013-06-28 21:09:00,71.1,61.2,29.61,NNW,327,0.0,2.0,71,0.00,,---,0.00,VWS V14.00,2013-06-29 02:09:00,
2013-06-28 21:14:00,71.3,61.4,29.61,NNW,327,2.0,5.0,71,0.00,,---,0.00,VWS V14.00,2013-06-29 02:14:00,
2013-06-28 21:19:00,71.3,61.4,29.61,NNW,327,0.0,0.0,71,0.00,,---,0.00,VWS V14.00,2013-06-29 02:19:00,
2013-06-28 21:24:00,71.1,61.6,29.61,NNW,327,0.0,0.0,72,0.00,,---,0.00,VWS V14.00,2013-06-29 02:24:00,
2013-06-28 21:29:00,70.9,61.0,29.61,NNW,327,0.0,1.0,71,0.00,,---,0.00,VWS V14.00,2013-06-29 02:29:00,
2013-06-28 21:34:00,70.9,61.4,29.61,NNW,327,0.0,0.0,72,0.00,,---,0.00,VWS V14.00,2013-06-29 02:34:00,
2013-06-28 21:39:00,70.8,61.3,29.61,NNW,327,0.0,0.0,72,0.00,,---,0.00,VWS V14.00,2013-06-29 02:39:00,
2013-06-28 21:44:00,70.4,61.3,29.61,NNW,327,0.0,0.0,73,0.00,,---,0.00,VWS V14.00,2013-06-29 02:44:00,
2013-06-28 21:49:00,70.3,61.2,29.61,NNW,327,0.0,0.0,73,0.00,,---,0.00,VWS V14.00,2013-06-29 02:49:00,
2013-06-28 21:54:00,70.1,61.4,29.61,NNW,327,0.0,0.0,74,0.00,,---,0.00,VWS V14.00,2013-06-29 02:54:00,
2013-06-28 21:59:00,69.9,61.2,29.61,NNW,327,0.0,0.0,74,0.00,,---,0.00,VWS V14.00,2013-06-29 02:59:00,
2013-06-28 22:04:00,69.8,61.2,29.61,NNW,327,0.0,0.0,74,0.00,,---,0.00,VWS V14.00,2013-06-29 03:04:00,
2013-06-28 22:10:00,69.6,61.3,29.61,NNW,327,0.0,0.0,75,0.00,,---,0.00,VWS V14.00,2013-06-29 03:10:00,
2013-06-28 22:15:00,69.6,61.3,29.61,NNW,327,0.0,0.0,75,0.00,,---,0.00,VWS V14.00,2013-06-29 03:15:00,
2013-06-28 22:20:00,69.4,61.1,29.61,NNW,327,0.0,0.0,75,0.00,,---,0.00,VWS V14.00,2013-06-29 03:20:00,
2013-06-28 22:25:00,69.4,61.1,29.61,NNW,327,0.0,0.0,75,0.00,,---,0.00,VWS V14.00,2013-06-29 03:25:00,
2013-06-28 22:30:00,69.3,61.4,29.61,NNW,327,0.0,0.0,76,0.00,,---,0.00,VWS V14.00,2013-06-29 03:30:00,
2013-06-28 22:35:00,69.1,61.2,29.61,NNW,327,0.0,0.0,76,0.00,,---,0.00,VWS V14.00,2013-06-29 03:35:00,
2013-06-28 22:40:00,68.9,61.0,29.61,NNW,327,0.0,0.0,76,0.00,,---,0.00,VWS V14.00,2013-06-29 03:40:00,
2013-06-28 22:45:00,68.9,61.0,29.61,NNW,327,0.0,0.0,76,0.00,,---,0.00,VWS V14.00,2013-06-29 03:45:00,
2013-06-28 22:50:00,68.8,61.3,29.61,NNW,327,0.0,2.0,77,0.00,,---,0.00,VWS V14.00,2013-06-29 03:50:00,
2013-06-28 22:55:00,68.8,60.9,29.61,NNW,327,0.0,1.0,76,0.00,,---,0.00,VWS V14.00,2013-06-29 03:55:00,
2013-06-28 23:00:00,68.8,60.9,29.61,NNW,327,0.0,0.0,76,0.00,,---,0.00,VWS V14.00,2013-06-29 04:00:00,
2013-06-28 23:01:00,68.8,60.9,29.61,NNW,327,0.0,0.0,76,0.00,,---,0.00,VWS V14.00,2013-06-29 04:01:00,
2013-06-28 23:02:00,68.8,60.9,29.61,NNW,327,0.0,1.0,76,0.00,,---,0.00,VWS V14.00,2013-06-29 04:02:00,
2013-06-28 23:07:00,68.8,61.3,29.60,NNW,327,1.0,1.0,77,0.00,,---,0.00,VWS V14.00,2013-06-29 04:07:00,
2013-06-28 23:12:00,68.6,61.1,29.60,NNW,327,0.0,0.0,77,0.00,,---,0.00,VWS V14.00,2013-06-29 04:12:00,
2013-06-28 23:17:00,68.6,61.1,29.60,NNW,327,0.0,0.0,77,0.00,,---,0.00,VWS V14.00,2013-06-29 04:17:00,
2013-06-28 23:22:00,68.6,61.5,29.60,NNW,327,0.0,0.0,78,0.00,,---,0.00,VWS V14.00,2013-06-29 04:22:00,
2013-06-28 23:27:00,68.6,61.5,29.60,NNW,327,0.0,1.0,78,0.00,,---,0.00,VWS V14.00,2013-06-29 04:27:00,
2013-06-28 23:32:00,68.6,61.1,29.60,NNW,327,0.0,0.0,77,0.00,,---,0.00,VWS V14.00,2013-06-29 04:32:00,
2013-06-28 23:37:00,68.6,61.1,29.59,NNW,327,0.0,0.0,77,0.00,,---,0.00,VWS V14.00,2013-06-29 04:37:00,
2013-06-28 23:42:00,68.6,61.1,29.59,NNW,327,0.0,0.0,77,0.00,,---,0.00,VWS V14.00,2013-06-29 04:42:00,
2013-06-28 23:47:00,68.4,60.9,29.59,NNW,327,0.0,0.0,77,0.00,,---,0.00,VWS V14.00,2013-06-29 04:47:00,
2013-06-28 23:52:00,68.4,61.3,29.59,NNW,327,0.0,0.0,78,0.00,,---,0.00,VWS V14.00,2013-06-29 04:52:00,
2013-06-28 23:57:00,68.3,61.2,29.59,NNW,327,0.0,0.0,78,0.00,,---,0.00,VWS V14.00,2013-06-29 04:57:00,